Time;durP1;ratioP1;P1;durP2;ratioP2;P2;SDS_P1;SDS_P2;PMS_P1;PMS_P2;Temp;Humidity;BMP_temperature;BMP_pressure;BME280_temperature;BME280_humidity;BME280_pressure;Samples;Min_cycle;Max_cycle;Signal;HPM_P1;HPM_P2
2022/03/12 00:01:19;;;;;;;4.40;3.20;;;;;;;;;;4986101;28;20046;-54
2022/03/12 00:03:47;;;;;;;4.53;2.60;;;;;;;;;;4985421;28;20081;-54
2022/03/12 00:06:15;;;;;;;4.57;3.05;;;;;;;;;;4967485;28;20042;-54
2022/03/12 00:08:43;;;;;;;3.97;2.50;;;;;;;;;;4983195;28;20084;-54
2022/03/12 00:11:13;;;;;;;4.43;2.72;;;;;;;;;;4965790;28;20023;-54
2022/03/12 00:13:40;;;;;;;6.80;3.22;;;;;;;;;;4964124;28;20029;-54
2022/03/12 00:16:10;;;;;;;4.22;2.75;;;;;;;;;;4965462;28;20022;-53
2022/03/12 00:18:37;;;;;;;4.80;2.83;;;;;;;;;;4969472;28;20088;-54
2022/03/12 00:21:04;;;;;;;3.95;2.85;;;;;;;;;;4985102;28;20022;-52
2022/03/12 00:23:31;;;;;;;4.18;3.15;;;;;;;;;;4985242;28;20030;-55
2022/03/12 00:25:59;;;;;;;5.30;3.00;;;;;;;;;;4983947;28;20045;-55
2022/03/12 00:28:26;;;;;;;4.97;2.83;;;;;;;;;;4966866;28;20022;-54
2022/03/12 00:30:54;;;;;;;3.60;2.65;;;;;;;;;;4985625;28;20477;-55
2022/03/12 00:33:21;;;;;;;4.07;2.58;;;;;;;;;;4984545;28;20030;-54
2022/03/12 00:35:51;;;;;;;3.60;2.60;;;;;;;;;;4977337;28;20026;-53
2022/03/12 00:38:19;;;;;;;4.07;3.03;;;;;;;;;;4985326;28;20045;-53
2022/03/12 00:40:46;;;;;;;3.13;2.20;;;;;;;;;;4983151;28;20156;-52
2022/03/12 00:43:12;;;;;;;3.13;2.50;;;;;;;;;;4983617;28;20038;-54
2022/03/12 00:45:38;;;;;;;4.07;2.58;;;;;;;;;;4984995;28;20453;-53
2022/03/12 00:48:06;;;;;;;3.83;2.50;;;;;;;;;;4985012;28;20037;-53
2022/03/12 00:50:33;;;;;;;3.58;2.50;;;;;;;;;;4985278;28;20413;-53
2022/03/12 00:52:59;;;;;;;4.18;2.58;;;;;;;;;;4984477;28;20030;-52
2022/03/12 00:55:25;;;;;;;3.67;2.58;;;;;;;;;;4985245;28;20034;-53
2022/03/12 00:57:52;;;;;;;2.97;2.25;;;;;;;;;;4985823;28;20731;-51
2022/03/12 01:00:20;;;;;;;3.97;2.60;;;;;;;;;;4985623;28;20085;-54
2022/03/12 01:02:46;;;;;;;3.67;2.33;;;;;;;;;;4998355;28;20034;-54
2022/03/12 01:05:14;;;;;;;3.90;2.20;;;;;;;;;;4985061;28;20125;-53
2022/03/12 01:07:40;;;;;;;3.08;2.00;;;;;;;;;;4985053;28;20030;-53
2022/03/12 01:10:06;;;;;;;5.65;2.90;;;;;;;;;;4969661;28;20038;-51
2022/03/12 01:12:32;;;;;;;4.00;2.38;;;;;;;;;;4965787;28;20092;-54
2022/03/12 01:14:58;;;;;;;3.83;2.47;;;;;;;;;;4981014;28;20426;-54
2022/03/12 01:17:25;;;;;;;3.90;2.53;;;;;;;;;;4984919;28;20676;-54
2022/03/12 01:19:51;;;;;;;2.42;1.92;;;;;;;;;;4985680;28;20026;-53
2022/03/12 01:22:20;;;;;;;5.65;3.25;;;;;;;;;;4984983;28;20035;-51
2022/03/12 01:24:47;;;;;;;3.28;2.50;;;;;;;;;;4967185;28;20030;-54
2022/03/12 01:27:16;;;;;;;3.92;2.72;;;;;;;;;;4986458;28;20136;-53
2022/03/12 01:29:42;;;;;;;5.00;2.90;;;;;;;;;;4988936;28;20430;-51
2022/03/12 01:32:11;;;;;;;4.20;2.58;;;;;;;;;;4981436;28;20094;-54
2022/03/12 01:34:38;;;;;;;3.30;2.58;;;;;;;;;;4981706;28;20042;-53
2022/03/12 01:37:05;;;;;;;3.95;2.75;;;;;;;;;;4988287;28;20037;-54
2022/03/12 01:39:32;;;;;;;5.45;2.40;;;;;;;;;;4977079;28;20056;-53
2022/03/12 01:41:58;;;;;;;6.60;3.00;;;;;;;;;;4975028;28;20027;-53
2022/03/12 01:44:25;;;;;;;3.40;2.25;;;;;;;;;;4977297;28;20031;-53
2022/03/12 01:46:51;;;;;;;3.42;2.47;;;;;;;;;;4981336;28;20541;-53
2022/03/12 01:49:19;;;;;;;3.90;2.60;;;;;;;;;;4988285;28;20109;-54
2022/03/12 01:51:47;;;;;;;3.45;2.58;;;;;;;;;;4988750;28;20022;-54
2022/03/12 01:54:13;;;;;;;4.22;2.10;;;;;;;;;;4987629;28;20030;-52
2022/03/12 01:56:41;;;;;;;4.57;2.30;;;;;;;;;;4987382;28;20042;-53
2022/03/12 01:59:07;;;;;;;3.03;2.05;;;;;;;;;;4988012;28;20030;-52
2022/03/12 02:01:34;;;;;;;3.38;2.00;;;;;;;;;;4988082;28;20117;-54
2022/03/12 02:04:00;;;;;;;2.47;1.70;;;;;;;;;;4987934;28;20023;-53
2022/03/12 02:06:27;;;;;;;2.78;1.73;;;;;;;;;;4987392;28;20110;-54
2022/03/12 02:08:58;;;;;;;3.15;1.73;;;;;;;;;;4987953;28;20076;-53
2022/03/12 02:11:28;;;;;;;2.13;1.65;;;;;;;;;;4971334;28;20129;-53
2022/03/12 02:14:01;;;;;;;2.85;1.60;;;;;;;;;;4987855;28;20407;-53
2022/03/12 02:16:28;;;;;;;1.63;1.53;;;;;;;;;;4987226;28;20034;-53
2022/03/12 02:18:54;;;;;;;1.50;1.33;;;;;;;;;;4987832;28;20034;-54
2022/03/12 02:21:41;;;;;;;1.42;1.25;;;;;;;;;;4987664;28;20026;-53
2022/03/12 02:24:12;;;;;;;1.77;1.30;;;;;;;;;;4987454;28;20041;-52
2022/03/12 02:26:41;;;;;;;2.20;1.50;;;;;;;;;;4986985;28;20743;-54
2022/03/12 02:29:11;;;;;;;1.75;1.55;;;;;;;;;;4987564;28;20030;-54
2022/03/12 02:31:43;;;;;;;1.38;1.20;;;;;;;;;;4987492;28;20068;-52
2022/03/12 02:34:11;;;;;;;1.55;1.10;;;;;;;;;;4987374;28;20057;-54
2022/03/12 02:36:38;;;;;;;2.70;1.70;;;;;;;;;;4986463;28;20106;-53
2022/03/12 02:39:05;;;;;;;1.38;1.27;;;;;;;;;;4986202;28;20417;-54
2022/03/12 02:41:32;;;;;;;1.25;1.13;;;;;;;;;;4987740;28;20493;-54
2022/03/12 02:43:58;;;;;;;1.40;1.17;;;;;;;;;;4986732;28;20046;-53
2022/03/12 02:46:31;;;;;;;2.03;1.40;;;;;;;;;;4986277;28;20046;-54
2022/03/12 02:48:58;;;;;;;2.00;1.50;;;;;;;;;;4987244;28;20110;-54
2022/03/12 02:51:26;;;;;;;2.05;1.50;;;;;;;;;;4987178;28;20409;-54
2022/03/12 02:53:56;;;;;;;1.23;1.13;;;;;;;;;;4987396;28;20026;-54
2022/03/12 02:56:26;;;;;;;1.45;1.20;;;;;;;;;;4987232;28;20069;-54
2022/03/12 02:58:53;;;;;;;1.63;1.20;;;;;;;;;;4988002;28;20061;-57
2022/03/12 03:01:19;;;;;;;1.45;1.10;;;;;;;;;;4987467;28;20067;-53
2022/03/12 03:03:46;;;;;;;1.40;1.10;;;;;;;;;;4985631;28;20030;-54
2022/03/12 03:06:15;;;;;;;1.10;0.90;;;;;;;;;;4986751;28;20090;-54
2022/03/12 03:08:42;;;;;;;1.35;0.93;;;;;;;;;;4969029;28;20030;-50
2022/03/12 03:11:12;;;;;;;1.33;0.88;;;;;;;;;;4987055;28;20472;-51
2022/03/12 03:13:45;;;;;;;1.08;0.98;;;;;;;;;;4987049;28;20030;-54
2022/03/12 03:16:18;;;;;;;0.73;0.73;;;;;;;;;;4986640;28;20050;-54
2022/03/12 03:18:50;;;;;;;0.95;0.88;;;;;;;;;;4986118;28;20353;-53
2022/03/12 03:21:17;;;;;;;0.90;0.80;;;;;;;;;;4986622;28;20424;-53
2022/03/12 03:23:45;;;;;;;1.20;0.80;;;;;;;;;;4969684;28;20717;-54
2022/03/12 03:26:11;;;;;;;1.42;1.00;;;;;;;;;;4967052;28;20490;-54
2022/03/12 03:28:38;;;;;;;0.70;0.70;;;;;;;;;;4975460;28;20029;-53
2022/03/12 03:31:07;;;;;;;1.05;0.95;;;;;;;;;;4986293;28;20034;-53
2022/03/12 03:33:33;;;;;;;1.30;0.90;;;;;;;;;;4986569;28;20026;-54
2022/03/12 03:35:59;;;;;;;0.85;0.80;;;;;;;;;;4985725;28;20409;-53
2022/03/12 03:38:25;;;;;;;1.00;0.90;;;;;;;;;;4986338;28;20061;-53
2022/03/12 03:40:52;;;;;;;1.40;1.00;;;;;;;;;;4987043;28;20038;-53
2022/03/12 03:43:20;;;;;;;0.88;0.70;;;;;;;;;;4987048;28;20109;-53
2022/03/12 03:45:48;;;;;;;0.90;0.80;;;;;;;;;;4985575;28;20038;-54
2022/03/12 03:48:16;;;;;;;0.98;0.70;;;;;;;;;;4984711;28;20041;-53
2022/03/12 03:50:44;;;;;;;1.02;0.82;;;;;;;;;;4985852;28;20030;-54
2022/03/12 03:53:11;;;;;;;1.02;0.88;;;;;;;;;;4986203;28;20025;-54
2022/03/12 03:55:38;;;;;;;0.60;0.60;;;;;;;;;;4986198;28;20026;-55
2022/03/12 03:58:05;;;;;;;1.13;0.85;;;;;;;;;;4985357;28;20026;-54
2022/03/12 04:00:31;;;;;;;0.80;0.80;;;;;;;;;;4985901;28;20502;-53
2022/03/12 04:03:02;;;;;;;0.90;0.70;;;;;;;;;;4985703;28;20390;-53
2022/03/12 04:05:31;;;;;;;1.08;0.85;;;;;;;;;;4985938;28;20038;-54
2022/03/12 04:07:57;;;;;;;1.40;1.00;;;;;;;;;;4984907;28;20026;-54
2022/03/12 04:10:24;;;;;;;2.60;1.40;;;;;;;;;;4986246;28;20141;-53
2022/03/12 04:12:50;;;;;;;2.75;1.50;;;;;;;;;;4985779;28;20413;-52
2022/03/12 04:15:17;;;;;;;1.75;1.30;;;;;;;;;;4985437;28;20053;-54
2022/03/12 04:17:44;;;;;;;1.63;1.27;;;;;;;;;;4985658;28;20092;-52
2022/03/12 04:20:10;;;;;;;1.88;1.35;;;;;;;;;;4985774;28;20108;-52
2022/03/12 04:22:38;;;;;;;1.95;1.40;;;;;;;;;;4985024;28;20027;-52
2022/03/12 04:25:05;;;;;;;1.98;1.40;;;;;;;;;;4984157;28;20493;-53
2022/03/12 04:27:31;;;;;;;1.20;1.10;;;;;;;;;;4967940;28;20022;-53
2022/03/12 04:29:57;;;;;;;2.20;1.40;;;;;;;;;;4985238;28;20030;-54
2022/03/12 04:32:23;;;;;;;3.38;2.42;;;;;;;;;;4985903;28;20048;-52
2022/03/12 04:34:50;;;;;;;2.20;1.80;;;;;;;;;;4980941;28;20053;-54
2022/03/12 04:37:17;;;;;;;2.35;1.65;;;;;;;;;;4984654;28;20061;-53
2022/03/12 04:39:44;;;;;;;1.90;1.55;;;;;;;;;;4985199;28;20041;-55
2022/03/12 04:42:10;;;;;;;2.47;1.50;;;;;;;;;;4984949;28;20034;-54
2022/03/12 04:44:36;;;;;;;3.53;1.77;;;;;;;;;;4984515;28;20397;-51
2022/03/12 04:47:03;;;;;;;2.97;1.73;;;;;;;;;;4985284;28;20412;-53
2022/03/12 04:49:30;;;;;;;2.00;1.27;;;;;;;;;;4985426;28;20038;-53
2022/03/12 04:51:56;;;;;;;1.98;1.30;;;;;;;;;;4985360;28;20025;-54
2022/03/12 04:54:23;;;;;;;2.30;1.13;;;;;;;;;;4981694;28;20026;-54
2022/03/12 04:56:49;;;;;;;1.80;1.40;;;;;;;;;;4966454;28;20026;-54
2022/03/12 04:59:16;;;;;;;2.65;1.60;;;;;;;;;;4965586;28;20027;-53
2022/03/12 05:01:42;;;;;;;1.80;1.30;;;;;;;;;;4966859;28;20120;-53
2022/03/12 05:04:09;;;;;;;2.13;1.60;;;;;;;;;;4974586;28;20034;-54
2022/03/12 05:06:35;;;;;;;2.30;1.63;;;;;;;;;;4989261;28;20081;-54
2022/03/12 05:09:04;;;;;;;2.75;1.20;;;;;;;;;;4988946;28;20085;-52
2022/03/12 05:11:32;;;;;;;1.67;1.30;;;;;;;;;;4989371;28;20037;-54
2022/03/12 05:13:58;;;;;;;1.33;1.23;;;;;;;;;;4988132;28;20568;-53
2022/03/12 05:16:25;;;;;;;1.67;1.30;;;;;;;;;;4981311;28;20507;-51
2022/03/12 05:18:53;;;;;;;1.40;1.25;;;;;;;;;;4989735;28;20520;-54
2022/03/12 05:21:19;;;;;;;1.77;1.17;;;;;;;;;;4990005;28;20048;-52
2022/03/12 05:23:45;;;;;;;1.77;1.20;;;;;;;;;;4988336;28;20497;-53
2022/03/12 05:26:12;;;;;;;1.52;1.23;;;;;;;;;;4988575;28;20026;-54
2022/03/12 05:28:40;;;;;;;1.55;1.23;;;;;;;;;;4986537;28;20033;-54
2022/03/12 05:31:09;;;;;;;2.53;1.98;;;;;;;;;;4989120;28;20018;-54
2022/03/12 05:33:36;;;;;;;1.90;1.55;;;;;;;;;;4986783;28;20113;-53
2022/03/12 05:36:03;;;;;;;1.83;1.35;;;;;;;;;;4969126;28;20030;-53
2022/03/12 05:38:37;;;;;;;1.58;1.08;;;;;;;;;;4969384;28;20034;-54
2022/03/12 05:41:09;;;;;;;1.52;1.40;;;;;;;;;;4969176;28;20046;-54
2022/03/12 05:43:40;;;;;;;1.48;1.10;;;;;;;;;;4981543;28;20468;-54
2022/03/12 05:46:07;;;;;;;2.78;1.30;;;;;;;;;;4988196;28;20026;-53
2022/03/12 05:48:34;;;;;;;1.52;1.20;;;;;;;;;;4988596;28;20030;-54
2022/03/12 05:51:00;;;;;;;4.05;1.90;;;;;;;;;;4988317;28;20057;-54
2022/03/12 05:53:27;;;;;;;2.42;1.85;;;;;;;;;;4988366;28;20030;-52
2022/03/12 05:55:53;;;;;;;2.33;1.83;;;;;;;;;;4988114;28;20490;-54
2022/03/12 05:58:24;;;;;;;4.60;2.20;;;;;;;;;;4987954;28;20038;-54
2022/03/12 06:00:54;;;;;;;2.08;1.88;;;;;;;;;;4988862;28;20033;-53
2022/03/12 06:03:20;;;;;;;2.75;2.00;;;;;;;;;;4988851;28;20564;-54
2022/03/12 06:05:55;;;;;;;3.03;2.25;;;;;;;;;;4987448;28;20058;-52
2022/03/12 06:08:22;;;;;;;3.55;2.38;;;;;;;;;;4988755;28;20535;-54
2022/03/12 06:10:54;;;;;;;2.78;2.03;;;;;;;;;;4988075;28;20022;-54
2022/03/12 06:13:23;;;;;;;3.22;2.22;;;;;;;;;;4988002;28;20723;-53
2022/03/12 06:15:55;;;;;;;3.42;2.10;;;;;;;;;;4987025;28;20030;-53
2022/03/12 06:18:24;;;;;;;3.13;1.92;;;;;;;;;;4988549;28;20030;-54
2022/03/12 06:20:50;;;;;;;2.15;1.65;;;;;;;;;;4987915;28;20023;-53
2022/03/12 06:23:16;;;;;;;1.98;1.40;;;;;;;;;;4987610;28;20034;-53
2022/03/12 06:25:43;;;;;;;1.73;1.50;;;;;;;;;;4986931;28;20401;-54
2022/03/12 06:28:10;;;;;;;2.45;1.58;;;;;;;;;;4987646;28;20653;-54
2022/03/12 06:30:40;;;;;;;2.13;1.60;;;;;;;;;;4987952;28;20022;-54
2022/03/12 06:33:06;;;;;;;1.98;1.35;;;;;;;;;;4987330;28;20061;-51
2022/03/12 06:35:32;;;;;;;2.30;1.80;;;;;;;;;;4986714;28;20085;-54
2022/03/12 06:37:58;;;;;;;1.90;1.40;;;;;;;;;;4986442;28;20117;-54
2022/03/12 06:40:29;;;;;;;2.13;1.27;;;;;;;;;;4988264;28;20030;-54
2022/03/12 06:42:56;;;;;;;3.55;1.80;;;;;;;;;;4987987;28;20093;-51
2022/03/12 06:45:23;;;;;;;1.88;1.20;;;;;;;;;;4987836;28;20030;-54
2022/03/12 06:47:49;;;;;;;2.60;1.70;;;;;;;;;;4986376;28;20045;-54
2022/03/12 06:50:20;;;;;;;2.55;1.65;;;;;;;;;;4987215;28;20030;-53
2022/03/12 06:52:48;;;;;;;2.15;1.50;;;;;;;;;;4987293;28;20026;-53
2022/03/12 06:55:15;;;;;;;1.27;1.00;;;;;;;;;;4987028;28;20413;-54
2022/03/12 06:57:41;;;;;;;1.27;1.10;;;;;;;;;;4986162;28;20528;-54
2022/03/12 07:00:12;;;;;;;2.33;1.50;;;;;;;;;;4986077;28;20038;-54
2022/03/12 07:02:38;;;;;;;1.42;1.30;;;;;;;;;;4986980;28;20453;-53
2022/03/12 07:05:05;;;;;;;1.70;1.33;;;;;;;;;;4986895;28;20500;-54
2022/03/12 07:07:31;;;;;;;1.77;1.40;;;;;;;;;;4986983;28;20104;-53
2022/03/12 07:09:57;;;;;;;2.20;1.30;;;;;;;;;;4985952;28;20034;-54
2022/03/12 07:12:23;;;;;;;1.95;1.42;;;;;;;;;;4968962;28;20456;-54
2022/03/12 07:14:50;;;;;;;2.13;1.38;;;;;;;;;;4986495;28;20023;-54
2022/03/12 07:17:16;;;;;;;1.70;1.30;;;;;;;;;;4985684;28;20054;-53
2022/03/12 07:19:42;;;;;;;2.25;1.40;;;;;;;;;;4985111;28;20565;-53
2022/03/12 07:22:09;;;;;;;1.73;1.45;;;;;;;;;;4987144;28;20547;-53
2022/03/12 07:24:35;;;;;;;1.98;1.50;;;;;;;;;;4986883;28;20038;-53
2022/03/12 07:27:01;;;;;;;2.15;1.50;;;;;;;;;;4986166;28;20758;-54
2022/03/12 07:29:31;;;;;;;2.25;1.52;;;;;;;;;;4987134;28;20040;-54
2022/03/12 07:31:57;;;;;;;1.58;1.27;;;;;;;;;;4987631;28;20460;-53
2022/03/12 07:34:24;;;;;;;1.40;1.30;;;;;;;;;;4987873;28;20049;-54
2022/03/12 07:36:51;;;;;;;1.75;1.30;;;;;;;;;;4985193;28;20030;-53
2022/03/12 07:39:17;;;;;;;1.80;1.40;;;;;;;;;;4985962;28;20030;-52
2022/03/12 07:41:43;;;;;;;2.45;1.38;;;;;;;;;;4973935;28;20034;-53
2022/03/12 07:44:09;;;;;;;1.88;1.58;;;;;;;;;;4968185;28;20038;-53
2022/03/12 07:46:35;;;;;;;1.70;1.45;;;;;;;;;;4980690;28;20498;-54
2022/03/12 07:49:03;;;;;;;1.83;1.50;;;;;;;;;;4968171;28;20426;-54
2022/03/12 07:51:29;;;;;;;1.60;1.30;;;;;;;;;;4968546;28;20019;-53
2022/03/12 07:53:58;;;;;;;1.40;1.10;;;;;;;;;;4986936;28;20081;-54
2022/03/12 07:56:25;;;;;;;1.45;1.25;;;;;;;;;;4987661;28;20026;-53
2022/03/12 07:58:51;;;;;;;1.50;1.10;;;;;;;;;;4987386;28;20034;-54
2022/03/12 08:01:17;;;;;;;1.45;1.23;;;;;;;;;;4987100;28;20498;-54
2022/03/12 08:03:43;;;;;;;1.80;1.20;;;;;;;;;;4985702;28;20450;-54
2022/03/12 08:06:09;;;;;;;1.45;1.27;;;;;;;;;;4978932;28;20610;-55
2022/03/12 08:08:36;;;;;;;1.88;1.48;;;;;;;;;;4985426;28;20057;-54
2022/03/12 08:13:48;;;;;;;2.55;1.63;;;;;;;;;;4981302;28;20579;-55
2022/03/12 08:16:15;;;;;;;2.72;1.70;;;;;;;;;;4989677;28;20031;-54
2022/03/12 08:18:41;;;;;;;2.72;1.70;;;;;;;;;;4986783;28;20030;-54
2022/03/12 08:21:08;;;;;;;1.80;1.42;;;;;;;;;;4988282;28;20034;-55
2022/03/12 08:23:35;;;;;;;2.65;1.90;;;;;;;;;;4988304;28;20527;-55
2022/03/12 08:26:01;;;;;;;2.53;1.77;;;;;;;;;;4986091;28;20034;-55
2022/03/12 08:28:27;;;;;;;2.08;1.40;;;;;;;;;;4985303;28;20046;-54
2022/03/12 08:30:53;;;;;;;1.92;1.40;;;;;;;;;;4986479;28;20523;-55
2022/03/12 08:33:20;;;;;;;1.60;1.30;;;;;;;;;;4984092;28;20031;-55
2022/03/12 08:35:49;;;;;;;1.92;1.40;;;;;;;;;;4986194;28;20035;-54
2022/03/12 08:38:15;;;;;;;1.98;1.40;;;;;;;;;;4987199;28;20121;-54
2022/03/12 08:40:41;;;;;;;1.85;1.73;;;;;;;;;;4982835;28;20027;-55
2022/03/12 08:43:07;;;;;;;1.80;1.67;;;;;;;;;;4977717;28;20351;-54
2022/03/12 08:45:34;;;;;;;1.90;1.38;;;;;;;;;;4987819;28;20034;-54
2022/03/12 08:48:00;;;;;;;1.88;1.33;;;;;;;;;;4985884;28;20022;-54
2022/03/12 08:50:26;;;;;;;1.25;1.15;;;;;;;;;;4986352;28;20058;-54
2022/03/12 08:52:52;;;;;;;1.65;1.20;;;;;;;;;;4985360;28;20069;-53
2022/03/12 08:55:18;;;;;;;1.42;1.33;;;;;;;;;;4986053;28;20075;-56
2022/03/12 08:57:44;;;;;;;1.80;1.50;;;;;;;;;;4984439;28;20402;-54
2022/03/12 09:00:12;;;;;;;1.10;1.00;;;;;;;;;;4980386;28;20495;-54
2022/03/12 09:02:40;;;;;;;1.33;1.20;;;;;;;;;;4983002;28;20030;-55
2022/03/12 09:05:07;;;;;;;1.50;1.40;;;;;;;;;;4969924;28;20019;-54
2022/03/12 09:07:34;;;;;;;1.23;1.00;;;;;;;;;;4968274;28;20438;-55
2022/03/12 09:10:00;;;;;;;1.60;1.10;;;;;;;;;;4974235;28;20037;-55
2022/03/12 09:12:26;;;;;;;1.30;1.00;;;;;;;;;;4987185;28;20034;-55
2022/03/12 09:14:55;;;;;;;1.67;1.20;;;;;;;;;;4985991;28;20421;-54
2022/03/12 09:17:22;;;;;;;1.73;1.23;;;;;;;;;;4987199;28;20103;-55
2022/03/12 09:19:48;;;;;;;1.38;1.20;;;;;;;;;;4987449;28;20510;-55
2022/03/12 09:22:14;;;;;;;3.90;1.42;;;;;;;;;;4985911;28;20553;-54
2022/03/12 09:24:40;;;;;;;2.40;1.73;;;;;;;;;;4983529;28;20088;-55
2022/03/12 09:27:09;;;;;;;3.28;1.67;;;;;;;;;;4984376;28;20109;-54
2022/03/12 09:29:36;;;;;;;2.50;2.10;;;;;;;;;;4985026;28;20027;-53
2022/03/12 09:32:05;;;;;;;1.80;1.65;;;;;;;;;;4985902;28;20406;-55
2022/03/12 09:34:34;;;;;;;1.88;1.30;;;;;;;;;;4986075;28;20037;-53
2022/03/12 09:37:02;;;;;;;3.42;1.70;;;;;;;;;;4972471;28;20027;-54
2022/03/12 09:39:30;;;;;;;4.32;1.95;;;;;;;;;;4972620;28;20033;-54
2022/03/12 09:41:57;;;;;;;2.13;1.85;;;;;;;;;;4971997;28;20105;-54
2022/03/12 09:44:23;;;;;;;1.88;1.60;;;;;;;;;;4967010;28;20035;-54
2022/03/12 09:46:49;;;;;;;2.42;2.03;;;;;;;;;;4967289;28;20077;-55
2022/03/12 09:49:16;;;;;;;2.85;1.80;;;;;;;;;;4969502;28;20561;-55
2022/03/12 09:51:42;;;;;;;4.97;2.17;;;;;;;;;;4970191;28;20058;-55
2022/03/12 09:54:08;;;;;;;3.47;2.33;;;;;;;;;;4969924;28;20074;-55
2022/03/12 09:56:35;;;;;;;4.70;2.78;;;;;;;;;;4970114;28;20029;-54
2022/03/12 09:59:01;;;;;;;4.78;2.60;;;;;;;;;;4986238;28;20038;-55
2022/03/12 10:01:28;;;;;;;3.50;2.13;;;;;;;;;;4991447;28;20045;-54
2022/03/12 10:03:54;;;;;;;2.78;1.90;;;;;;;;;;4998870;28;20040;-55
2022/03/12 10:06:20;;;;;;;3.28;1.95;;;;;;;;;;4990732;28;20561;-56
2022/03/12 10:08:46;;;;;;;3.22;2.10;;;;;;;;;;4990298;28;20094;-55
2022/03/12 10:11:13;;;;;;;2.33;1.70;;;;;;;;;;4989507;28;20034;-54
2022/03/12 10:13:39;;;;;;;2.65;1.90;;;;;;;;;;4989709;28;20053;-54
2022/03/12 10:16:06;;;;;;;2.03;1.70;;;;;;;;;;4989675;28;20077;-55
2022/03/12 10:18:32;;;;;;;4.45;2.10;;;;;;;;;;4989832;28;20026;-55
2022/03/12 10:20:59;;;;;;;3.83;2.17;;;;;;;;;;4990061;28;20089;-55
2022/03/12 10:23:25;;;;;;;2.13;1.83;;;;;;;;;;4988931;28;20117;-54
2022/03/12 10:25:51;;;;;;;3.15;1.90;;;;;;;;;;4989568;28;20038;-55
2022/03/12 10:28:18;;;;;;;3.30;1.85;;;;;;;;;;4987349;28;20126;-55
2022/03/12 10:30:44;;;;;;;1.95;1.60;;;;;;;;;;4990213;28;20030;-55
2022/03/12 10:33:10;;;;;;;1.85;1.50;;;;;;;;;;4989592;28;20019;-55
2022/03/12 10:35:40;;;;;;;2.00;1.40;;;;;;;;;;4989966;28;20022;-54
2022/03/12 10:38:10;;;;;;;1.75;1.48;;;;;;;;;;4989630;28;20126;-54
2022/03/12 10:40:36;;;;;;;2.40;1.60;;;;;;;;;;4990013;28;20035;-55
2022/03/12 10:43:12;;;;;;;3.08;2.00;;;;;;;;;;4989586;28;20084;-56
2022/03/12 10:45:43;;;;;;;1.92;1.70;;;;;;;;;;4989647;28;20042;-54
2022/03/12 10:48:09;;;;;;;3.22;1.90;;;;;;;;;;4989597;28;20023;-55
2022/03/12 10:50:55;;;;;;;2.65;1.80;;;;;;;;;;4989290;28;20023;-54
2022/03/12 10:53:22;;;;;;;2.30;1.70;;;;;;;;;;4990019;28;20018;-53
2022/03/12 10:55:50;;;;;;;2.00;1.73;;;;;;;;;;4989800;28;20532;-54
2022/03/12 10:58:22;;;;;;;2.90;1.60;;;;;;;;;;4988702;28;20034;-56
2022/03/12 11:00:49;;;;;;;2.50;1.73;;;;;;;;;;4988452;28;20038;-54
2022/03/12 11:03:20;;;;;;;1.48;1.38;;;;;;;;;;4989089;28;20521;-51
2022/03/12 11:05:47;;;;;;;2.28;1.63;;;;;;;;;;4989885;28;20034;-53
2022/03/12 11:08:20;;;;;;;2.08;1.65;;;;;;;;;;4989339;28;20034;-55
2022/03/12 11:10:51;;;;;;;1.67;1.40;;;;;;;;;;4989820;28;20022;-55
2022/03/12 11:13:34;;;;;;;1.73;1.40;;;;;;;;;;4989620;28;20045;-55
2022/03/12 11:16:12;;;;;;;2.47;1.58;;;;;;;;;;4987647;28;20113;-55
2022/03/12 11:18:39;;;;;;;1.27;1.10;;;;;;;;;;4987891;28;20057;-55
2022/03/12 11:21:05;;;;;;;1.33;1.05;;;;;;;;;;4987703;28;20027;-54
2022/03/12 11:23:31;;;;;;;1.65;1.35;;;;;;;;;;4986128;28;20228;-54
2022/03/12 11:25:59;;;;;;;1.67;1.02;;;;;;;;;;4987673;28;20096;-54
2022/03/12 11:28:28;;;;;;;1.98;1.30;;;;;;;;;;4986242;28;20037;-55
2022/03/12 11:30:56;;;;;;;3.80;2.17;;;;;;;;;;4986441;28;20029;-55
2022/03/12 11:33:24;;;;;;;3.10;1.92;;;;;;;;;;4988552;28;20221;-55
2022/03/12 11:35:57;;;;;;;2.47;1.85;;;;;;;;;;4988243;28;20098;-55
2022/03/12 11:38:24;;;;;;;3.08;1.98;;;;;;;;;;4987604;28;20038;-55
2022/03/12 11:40:51;;;;;;;2.30;1.45;;;;;;;;;;4988451;28;20061;-55
2022/03/12 11:43:24;;;;;;;2.42;1.90;;;;;;;;;;4987365;28;20405;-54
2022/03/12 11:45:53;;;;;;;1.75;1.30;;;;;;;;;;4988422;28;20029;-55
2022/03/12 11:48:19;;;;;;;1.90;1.55;;;;;;;;;;4987768;28;20022;-54
2022/03/12 11:50:45;;;;;;;1.58;1.45;;;;;;;;;;4987746;28;20402;-55
2022/03/12 11:53:15;;;;;;;1.70;1.30;;;;;;;;;;4987533;28;20092;-55
2022/03/12 11:55:41;;;;;;;1.98;1.27;;;;;;;;;;4986373;28;20081;-55
2022/03/12 11:58:07;;;;;;;2.88;2.20;;;;;;;;;;4987370;28;20414;-55
2022/03/12 12:00:34;;;;;;;2.80;1.92;;;;;;;;;;4986128;28;20429;-55
2022/03/12 12:03:00;;;;;;;2.15;1.70;;;;;;;;;;4985379;28;20041;-55
2022/03/12 12:05:30;;;;;;;2.33;1.63;;;;;;;;;;4985890;28;20026;-55
2022/03/12 12:07:57;;;;;;;3.08;1.77;;;;;;;;;;4986536;28;20485;-54
2022/03/12 12:10:27;;;;;;;3.70;1.90;;;;;;;;;;4985744;28;20026;-54
2022/03/12 12:12:54;;;;;;;2.28;1.55;;;;;;;;;;4985439;28;20343;-53
2022/03/12 12:15:33;;;;;;;2.72;1.70;;;;;;;;;;4984162;28;20101;-54
2022/03/12 12:18:00;;;;;;;1.90;1.58;;;;;;;;;;4977226;28;20023;-53
2022/03/12 12:20:28;;;;;;;2.42;2.00;;;;;;;;;;4974240;28;20026;-54
2022/03/12 12:22:55;;;;;;;2.58;1.80;;;;;;;;;;4978541;28;20023;-54
2022/03/12 12:25:21;;;;;;;2.20;1.77;;;;;;;;;;4968330;28;20082;-54
2022/03/12 12:27:47;;;;;;;2.88;2.03;;;;;;;;;;4982551;28;20522;-54
2022/03/12 12:30:15;;;;;;;3.00;2.03;;;;;;;;;;4981844;28;20081;-53
2022/03/12 12:32:46;;;;;;;3.05;2.15;;;;;;;;;;4974724;28;20018;-54
2022/03/12 12:35:24;;;;;;;1.75;1.38;;;;;;;;;;4986972;28;20026;-54
2022/03/12 12:38:00;;;;;;;3.95;1.80;;;;;;;;;;4987461;28;20022;-54
2022/03/12 12:40:41;;;;;;;2.25;1.80;;;;;;;;;;4985895;28;20065;-54
2022/03/12 12:43:13;;;;;;;1.70;1.50;;;;;;;;;;4968427;28;20045;-53
2022/03/12 12:45:48;;;;;;;2.40;1.60;;;;;;;;;;4986998;28;20089;-53
2022/03/12 12:48:15;;;;;;;3.38;2.03;;;;;;;;;;4985535;28;20069;-54
2022/03/12 12:51:01;;;;;;;2.90;1.83;;;;;;;;;;4985097;28;20026;-53
2022/03/12 12:53:28;;;;;;;4.15;2.25;;;;;;;;;;4975434;28;20508;-51
2022/03/12 12:56:19;;;;;;;2.10;1.80;;;;;;;;;;4982631;28;20044;-54
2022/03/12 12:58:55;;;;;;;2.35;1.95;;;;;;;;;;4977054;28;20056;-53
2022/03/12 13:01:22;;;;;;;2.88;1.98;;;;;;;;;;4987453;28;20467;-53
2022/03/12 13:03:50;;;;;;;2.17;1.50;;;;;;;;;;4985530;28;20038;-55
2022/03/12 13:06:35;;;;;;;2.40;1.58;;;;;;;;;;4975447;28;20023;-54
2022/03/12 13:09:05;;;;;;;2.17;1.73;;;;;;;;;;4966159;28;20078;-52
2022/03/12 13:11:35;;;;;;;1.30;1.20;;;;;;;;;;4965902;28;20031;-55
2022/03/12 13:14:03;;;;;;;2.28;1.52;;;;;;;;;;4965226;28;20038;-53
2022/03/12 13:16:47;;;;;;;2.33;1.70;;;;;;;;;;4965829;28;20336;-54
2022/03/12 13:19:27;;;;;;;2.03;1.55;;;;;;;;;;4965490;28;20553;-54
2022/03/12 13:21:58;;;;;;;2.05;1.50;;;;;;;;;;4966179;28;20591;-53
2022/03/12 13:24:28;;;;;;;1.70;1.50;;;;;;;;;;4969655;28;20122;-53
2022/03/12 13:26:54;;;;;;;1.85;1.20;;;;;;;;;;4969664;28;20077;-55
2022/03/12 13:29:22;;;;;;;1.85;1.15;;;;;;;;;;4970115;28;20027;-54
2022/03/12 13:31:50;;;;;;;1.48;1.02;;;;;;;;;;4970158;28;20102;-53
2022/03/12 13:34:17;;;;;;;1.45;1.20;;;;;;;;;;4969145;28;20510;-54
2022/03/12 13:36:48;;;;;;;2.80;1.10;;;;;;;;;;4969585;28;20137;-54
2022/03/12 13:39:15;;;;;;;1.48;1.08;;;;;;;;;;4968914;28;20034;-54
2022/03/12 13:41:42;;;;;;;1.10;0.90;;;;;;;;;;4969638;28;20077;-55
2022/03/12 13:44:09;;;;;;;1.15;0.90;;;;;;;;;;4968918;28;20039;-54
2022/03/12 13:46:35;;;;;;;1.02;0.90;;;;;;;;;;4969526;28;20058;-54
2022/03/12 13:49:10;;;;;;;1.10;0.95;;;;;;;;;;4968857;28;20117;-54
2022/03/12 13:51:46;;;;;;;1.15;0.90;;;;;;;;;;4969533;28;20093;-54
2022/03/12 13:54:14;;;;;;;2.55;0.73;;;;;;;;;;4968708;28;20030;-54
2022/03/12 13:56:41;;;;;;;0.90;0.90;;;;;;;;;;4969220;28;20406;-54
2022/03/12 13:59:10;;;;;;;1.05;0.93;;;;;;;;;;4969307;28;20445;-54
2022/03/12 14:01:38;;;;;;;0.73;0.73;;;;;;;;;;4968976;28;20105;-55
2022/03/12 14:04:05;;;;;;;0.77;0.77;;;;;;;;;;4968705;28;20518;-55
2022/03/12 14:06:42;;;;;;;1.15;1.00;;;;;;;;;;4968975;28;20066;-54
2022/03/12 14:09:10;;;;;;;0.98;0.90;;;;;;;;;;4968239;28;20042;-55
2022/03/12 14:11:42;;;;;;;1.23;1.02;;;;;;;;;;4968732;28;20094;-54
2022/03/12 14:14:10;;;;;;;1.27;1.00;;;;;;;;;;4968264;28;20026;-54
2022/03/12 14:16:38;;;;;;;1.00;0.90;;;;;;;;;;4968718;28;20023;-55
2022/03/12 14:19:05;;;;;;;2.50;1.35;;;;;;;;;;4968788;28;20509;-54
2022/03/12 14:21:40;;;;;;;2.20;1.40;;;;;;;;;;4968547;28;20105;-54
2022/03/12 14:24:10;;;;;;;0.98;0.90;;;;;;;;;;4968104;28;20023;-54
2022/03/12 14:26:48;;;;;;;0.90;0.90;;;;;;;;;;4966822;28;20430;-54
2022/03/12 14:29:15;;;;;;;0.80;0.80;;;;;;;;;;4968328;28;20030;-54
2022/03/12 14:31:42;;;;;;;1.08;0.80;;;;;;;;;;4968584;28;20089;-54
2022/03/12 14:34:14;;;;;;;1.00;0.80;;;;;;;;;;4968027;28;20114;-53
2022/03/12 14:36:42;;;;;;;1.75;1.27;;;;;;;;;;4968411;28;20015;-53
2022/03/12 14:39:11;;;;;;;1.05;0.90;;;;;;;;;;4967846;28;20057;-54
2022/03/12 14:41:37;;;;;;;1.10;1.00;;;;;;;;;;4968444;28;20526;-55
2022/03/12 14:44:11;;;;;;;1.30;1.00;;;;;;;;;;4967919;28;20038;-54
2022/03/12 14:46:45;;;;;;;1.20;1.02;;;;;;;;;;4968151;28;20023;-54
2022/03/12 14:49:26;;;;;;;1.50;1.20;;;;;;;;;;4968019;28;20034;-54
2022/03/12 14:51:57;;;;;;;1.23;1.00;;;;;;;;;;4967414;28;20026;-54